sensor_id;sensor_type;location;lat;lon;timestamp;temperature;humidity
69054;DHT22;56125;52.242;4.756;2022-09-19T00:04:36;20.10;52.10
69054;DHT22;56125;52.242;4.756;2022-09-19T00:09:37;20.10;52.00
69054;DHT22;56125;52.242;4.756;2022-09-19T00:14:38;20.10;52.00
69054;DHT22;56125;52.242;4.756;2022-09-19T00:19:40;20.10;52.00
69054;DHT22;56125;52.242;4.756;2022-09-19T00:24:41;20.10;51.90
69054;DHT22;56125;52.242;4.756;2022-09-19T00:29:50;20.10;51.90
69054;DHT22;56125;52.242;4.756;2022-09-19T00:34:52;20.10;51.90
69054;DHT22;56125;52.242;4.756;2022-09-19T00:39:56;20.10;51.90
69054;DHT22;56125;52.242;4.756;2022-09-19T00:45:00;20.10;51.80
69054;DHT22;56125;52.242;4.756;2022-09-19T00:50:06;20.10;51.70
69054;DHT22;56125;52.242;4.756;2022-09-19T00:55:09;20.00;51.70
69054;DHT22;56125;52.242;4.756;2022-09-19T01:00:11;20.00;51.70
69054;DHT22;56125;52.242;4.756;2022-09-19T01:05:13;20.00;51.70
69054;DHT22;56125;52.242;4.756;2022-09-19T01:10:22;20.00;51.80
69054;DHT22;56125;52.242;4.756;2022-09-19T01:15:45;20.00;51.80
69054;DHT22;56125;52.242;4.756;2022-09-19T01:21:10;20.00;51.80
69054;DHT22;56125;52.242;4.756;2022-09-19T01:32:12;20.00;51.80
69054;DHT22;56125;52.242;4.756;2022-09-19T01:37:21;20.00;51.80
69054;DHT22;56125;52.242;4.756;2022-09-19T01:42:24;20.00;51.80
69054;DHT22;56125;52.242;4.756;2022-09-19T01:58:52;20.00;51.80
69054;DHT22;56125;52.242;4.756;2022-09-19T02:14:25;20.00;51.90
69054;DHT22;56125;52.242;4.756;2022-09-19T02:19:34;20.00;51.90
69054;DHT22;56125;52.242;4.756;2022-09-19T02:24:39;20.00;52.00
69054;DHT22;56125;52.242;4.756;2022-09-19T02:29:44;20.00;51.90
69054;DHT22;56125;52.242;4.756;2022-09-19T02:34:47;19.90;51.90
69054;DHT22;56125;52.242;4.756;2022-09-19T02:39:55;20.00;52.00
69054;DHT22;56125;52.242;4.756;2022-09-19T02:45:25;20.00;52.00
69054;DHT22;56125;52.242;4.756;2022-09-19T02:50:34;19.90;51.90
69054;DHT22;56125;52.242;4.756;2022-09-19T02:55:42;19.90;52.00
69054;DHT22;56125;52.242;4.756;2022-09-19T03:00:50;19.90;51.90
69054;DHT22;56125;52.242;4.756;2022-09-19T03:05:54;19.90;52.00
69054;DHT22;56125;52.242;4.756;2022-09-19T03:10:57;19.90;52.00
69054;DHT22;56125;52.242;4.756;2022-09-19T03:16:03;19.90;52.10
69054;DHT22;56125;52.242;4.756;2022-09-19T03:21:09;19.90;52.00
69054;DHT22;56125;52.242;4.756;2022-09-19T03:26:12;19.90;52.00
69054;DHT22;56125;52.242;4.756;2022-09-19T03:31:14;19.90;52.00
69054;DHT22;56125;52.242;4.756;2022-09-19T03:36:15;19.90;51.90
69054;DHT22;56125;52.242;4.756;2022-09-19T03:41:21;19.90;52.00
69054;DHT22;56125;52.242;4.756;2022-09-19T03:46:22;19.90;52.00
69054;DHT22;56125;52.242;4.756;2022-09-19T03:51:23;19.90;52.00
69054;DHT22;56125;52.242;4.756;2022-09-19T03:56:25;19.90;52.00
69054;DHT22;56125;52.242;4.756;2022-09-19T04:01:26;19.90;52.00
69054;DHT22;56125;52.242;4.756;2022-09-19T04:06:27;19.90;52.00
69054;DHT22;56125;52.242;4.756;2022-09-19T04:11:28;19.90;52.00
69054;DHT22;56125;52.242;4.756;2022-09-19T04:16:30;19.90;52.10
69054;DHT22;56125;52.242;4.756;2022-09-19T04:21:30;19.90;52.00
69054;DHT22;56125;52.242;4.756;2022-09-19T04:26:31;19.90;52.20
69054;DHT22;56125;52.242;4.756;2022-09-19T04:31:33;19.90;52.00
69054;DHT22;56125;52.242;4.756;2022-09-19T04:36:41;19.90;52.10
69054;DHT22;56125;52.242;4.756;2022-09-19T04:41:42;19.90;52.10
69054;DHT22;56125;52.242;4.756;2022-09-19T04:46:43;19.90;52.10
69054;DHT22;56125;52.242;4.756;2022-09-19T04:51:45;19.90;52.30
69054;DHT22;56125;52.242;4.756;2022-09-19T04:56:46;19.90;52.30
69054;DHT22;56125;52.242;4.756;2022-09-19T05:01:47;19.90;52.30
69054;DHT22;56125;52.242;4.756;2022-09-19T05:06:48;19.90;52.30
69054;DHT22;56125;52.242;4.756;2022-09-19T05:11:49;19.90;52.40
69054;DHT22;56125;52.242;4.756;2022-09-19T05:16:50;19.90;52.40
69054;DHT22;56125;52.242;4.756;2022-09-19T05:21:51;19.90;52.50
69054;DHT22;56125;52.242;4.756;2022-09-19T05:26:54;19.90;52.50
69054;DHT22;56125;52.242;4.756;2022-09-19T05:31:55;19.80;52.40
69054;DHT22;56125;52.242;4.756;2022-09-19T05:37:00;19.90;52.40
69054;DHT22;56125;52.242;4.756;2022-09-19T05:42:02;19.90;52.50
69054;DHT22;56125;52.242;4.756;2022-09-19T05:47:03;19.90;52.70
69054;DHT22;56125;52.242;4.756;2022-09-19T05:52:04;19.90;52.80
69054;DHT22;56125;52.242;4.756;2022-09-19T05:57:23;19.90;52.90
69054;DHT22;56125;52.242;4.756;2022-09-19T06:02:24;19.90;52.90
69054;DHT22;56125;52.242;4.756;2022-09-19T06:07:25;19.90;53.00
69054;DHT22;56125;52.242;4.756;2022-09-19T06:12:26;19.90;53.10
69054;DHT22;56125;52.242;4.756;2022-09-19T06:17:27;19.90;54.40
69054;DHT22;56125;52.242;4.756;2022-09-19T06:22:28;19.90;53.50
69054;DHT22;56125;52.242;4.756;2022-09-19T06:27:30;19.90;53.30
69054;DHT22;56125;52.242;4.756;2022-09-19T06:32:31;19.90;53.20
69054;DHT22;56125;52.242;4.756;2022-09-19T06:37:32;19.90;53.10
69054;DHT22;56125;52.242;4.756;2022-09-19T06:42:34;19.90;53.00
69054;DHT22;56125;52.242;4.756;2022-09-19T06:47:35;19.90;53.30
69054;DHT22;56125;52.242;4.756;2022-09-19T06:52:36;20.00;53.30
69054;DHT22;56125;52.242;4.756;2022-09-19T06:57:37;20.00;53.60
69054;DHT22;56125;52.242;4.756;2022-09-19T07:02:38;20.10;54.00
69054;DHT22;56125;52.242;4.756;2022-09-19T07:07:39;20.10;54.10
69054;DHT22;56125;52.242;4.756;2022-09-19T07:12:40;20.20;54.20
69054;DHT22;56125;52.242;4.756;2022-09-19T07:17:41;20.20;54.20
69054;DHT22;56125;52.242;4.756;2022-09-19T07:22:42;20.20;54.30
69054;DHT22;56125;52.242;4.756;2022-09-19T07:27:43;20.30;54.20
69054;DHT22;56125;52.242;4.756;2022-09-19T07:32:45;20.30;54.20
69054;DHT22;56125;52.242;4.756;2022-09-19T07:37:50;20.30;54.20
69054;DHT22;56125;52.242;4.756;2022-09-19T07:42:51;20.40;54.30
69054;DHT22;56125;52.242;4.756;2022-09-19T07:47:52;20.40;54.20
69054;DHT22;56125;52.242;4.756;2022-09-19T07:53:00;20.50;54.20
69054;DHT22;56125;52.242;4.756;2022-09-19T07:58:03;20.50;54.10
69054;DHT22;56125;52.242;4.756;2022-09-19T08:03:08;20.60;54.00
69054;DHT22;56125;52.242;4.756;2022-09-19T08:08:11;20.60;54.00
69054;DHT22;56125;52.242;4.756;2022-09-19T08:13:15;20.60;53.90
69054;DHT22;56125;52.242;4.756;2022-09-19T08:18:19;20.60;53.90
69054;DHT22;56125;52.242;4.756;2022-09-19T08:23:20;20.60;53.90
69054;DHT22;56125;52.242;4.756;2022-09-19T08:28:21;20.60;54.00
69054;DHT22;56125;52.242;4.756;2022-09-19T08:33:22;20.70;54.30
69054;DHT22;56125;52.242;4.756;2022-09-19T08:38:24;20.70;55.20
69054;DHT22;56125;52.242;4.756;2022-09-19T08:53:54;20.80;54.30
69054;DHT22;56125;52.242;4.756;2022-09-19T08:59:02;20.80;54.50
69054;DHT22;56125;52.242;4.756;2022-09-19T09:04:28;20.70;54.50
69054;DHT22;56125;52.242;4.756;2022-09-19T09:25:25;20.70;53.60
69054;DHT22;56125;52.242;4.756;2022-09-19T09:30:34;20.70;53.50
69054;DHT22;56125;52.242;4.756;2022-09-19T09:35:44;20.70;53.60
69054;DHT22;56125;52.242;4.756;2022-09-19T09:40:51;20.70;53.40
69054;DHT22;56125;52.242;4.756;2022-09-19T09:46:16;20.70;54.40
69054;DHT22;56125;52.242;4.756;2022-09-19T09:51:42;20.70;53.30
69054;DHT22;56125;52.242;4.756;2022-09-19T09:56:50;20.70;53.20
69054;DHT22;56125;52.242;4.756;2022-09-19T10:01:57;20.70;53.20
69054;DHT22;56125;52.242;4.756;2022-09-19T10:07:41;20.70;53.10
69054;DHT22;56125;52.242;4.756;2022-09-19T10:12:52;20.80;53.10
69054;DHT22;56125;52.242;4.756;2022-09-19T10:18:00;20.80;53.00
69054;DHT22;56125;52.242;4.756;2022-09-19T10:23:12;20.80;52.80
69054;DHT22;56125;52.242;4.756;2022-09-19T10:33:42;20.80;52.80
69054;DHT22;56125;52.242;4.756;2022-09-19T10:38:55;20.80;52.80
69054;DHT22;56125;52.242;4.756;2022-09-19T10:44:02;20.80;52.80
69054;DHT22;56125;52.242;4.756;2022-09-19T10:49:19;20.80;52.90
69054;DHT22;56125;52.242;4.756;2022-09-19T10:59:37;20.80;52.70
69054;DHT22;56125;52.242;4.756;2022-09-19T11:04:39;20.80;52.70
69054;DHT22;56125;52.242;4.756;2022-09-19T11:09:43;20.80;52.80
69054;DHT22;56125;52.242;4.756;2022-09-19T11:14:47;20.80;52.70
69054;DHT22;56125;52.242;4.756;2022-09-19T11:25:30;20.80;52.40
69054;DHT22;56125;52.242;4.756;2022-09-19T11:30:35;20.80;52.40
69054;DHT22;56125;52.242;4.756;2022-09-19T11:35:50;20.80;52.30
69054;DHT22;56125;52.242;4.756;2022-09-19T11:41:15;20.80;52.40
69054;DHT22;56125;52.242;4.756;2022-09-19T11:52:10;20.90;52.60
69054;DHT22;56125;52.242;4.756;2022-09-19T12:03:00;20.90;52.70
69054;DHT22;56125;52.242;4.756;2022-09-19T12:13:45;21.00;53.10
69054;DHT22;56125;52.242;4.756;2022-09-19T12:19:10;21.00;53.20
69054;DHT22;56125;52.242;4.756;2022-09-19T12:24:17;21.10;53.30
69054;DHT22;56125;52.242;4.756;2022-09-19T12:30:00;21.10;53.30
69054;DHT22;56125;52.242;4.756;2022-09-19T12:40:28;21.10;53.40
69054;DHT22;56125;52.242;4.756;2022-09-19T12:45:47;21.10;53.40
69054;DHT22;56125;52.242;4.756;2022-09-19T12:50:56;21.10;53.40
69054;DHT22;56125;52.242;4.756;2022-09-19T13:01:21;21.10;53.70
69054;DHT22;56125;52.242;4.756;2022-09-19T13:06:27;21.10;53.80
69054;DHT22;56125;52.242;4.756;2022-09-19T13:11:41;21.10;53.90
69054;DHT22;56125;52.242;4.756;2022-09-19T13:16:44;21.10;53.80
69054;DHT22;56125;52.242;4.756;2022-09-19T13:22:06;21.10;53.70
69054;DHT22;56125;52.242;4.756;2022-09-19T13:27:18;21.10;53.80
69054;DHT22;56125;52.242;4.756;2022-09-19T13:32:28;21.20;53.90
69054;DHT22;56125;52.242;4.756;2022-09-19T13:48:31;21.20;53.80
69054;DHT22;56125;52.242;4.756;2022-09-19T13:53:43;21.20;54.00
69054;DHT22;56125;52.242;4.756;2022-09-19T13:58:45;21.30;54.10
69054;DHT22;56125;52.242;4.756;2022-09-19T14:03:58;21.30;54.00
69054;DHT22;56125;52.242;4.756;2022-09-19T14:19:44;21.30;53.80
69054;DHT22;56125;52.242;4.756;2022-09-19T14:24:46;21.40;53.70
69054;DHT22;56125;52.242;4.756;2022-09-19T14:30:05;21.40;53.70
69054;DHT22;56125;52.242;4.756;2022-09-19T14:35:24;21.40;53.20
69054;DHT22;56125;52.242;4.756;2022-09-19T14:40:57;21.40;53.10
69054;DHT22;56125;52.242;4.756;2022-09-19T14:46:26;21.40;53.00
69054;DHT22;56125;52.242;4.756;2022-09-19T14:51:41;21.40;52.90
69054;DHT22;56125;52.242;4.756;2022-09-19T15:02:22;21.40;52.90
69054;DHT22;56125;52.242;4.756;2022-09-19T15:07:29;21.40;52.70
69054;DHT22;56125;52.242;4.756;2022-09-19T15:12:34;21.40;52.70
69054;DHT22;56125;52.242;4.756;2022-09-19T15:17:36;21.40;52.60
69054;DHT22;56125;52.242;4.756;2022-09-19T15:22:49;21.40;52.40
69054;DHT22;56125;52.242;4.756;2022-09-19T15:27:57;21.40;52.40
69054;DHT22;56125;52.242;4.756;2022-09-19T15:33:05;21.40;52.40
69054;DHT22;56125;52.242;4.756;2022-09-19T15:38:28;21.30;52.20
69054;DHT22;56125;52.242;4.756;2022-09-19T15:43:30;21.30;52.10
69054;DHT22;56125;52.242;4.756;2022-09-19T15:48:45;21.30;51.90
69054;DHT22;56125;52.242;4.756;2022-09-19T15:53:46;21.30;51.80
69054;DHT22;56125;52.242;4.756;2022-09-19T15:58:58;21.30;51.70
69054;DHT22;56125;52.242;4.756;2022-09-19T16:04:06;21.20;51.70
69054;DHT22;56125;52.242;4.756;2022-09-19T16:09:10;21.20;51.60
69054;DHT22;56125;52.242;4.756;2022-09-19T16:24:35;21.10;51.40
69054;DHT22;56125;52.242;4.756;2022-09-19T16:29:47;21.10;51.40
69054;DHT22;56125;52.242;4.756;2022-09-19T16:34:54;21.00;51.50
69054;DHT22;56125;52.242;4.756;2022-09-19T16:39:56;21.00;51.50
69054;DHT22;56125;52.242;4.756;2022-09-19T16:50:03;21.00;51.60
69054;DHT22;56125;52.242;4.756;2022-09-19T16:55:17;21.00;51.60
69054;DHT22;56125;52.242;4.756;2022-09-19T17:00:21;21.00;51.60
69054;DHT22;56125;52.242;4.756;2022-09-19T17:05:25;21.00;51.90
69054;DHT22;56125;52.242;4.756;2022-09-19T17:10:29;21.00;51.90
69054;DHT22;56125;52.242;4.756;2022-09-19T17:15:39;21.00;52.10
69054;DHT22;56125;52.242;4.756;2022-09-19T17:20:41;21.00;52.00
69054;DHT22;56125;52.242;4.756;2022-09-19T17:25:47;21.00;52.10
69054;DHT22;56125;52.242;4.756;2022-09-19T17:30:49;21.00;52.10
69054;DHT22;56125;52.242;4.756;2022-09-19T17:35:52;21.00;52.20
69054;DHT22;56125;52.242;4.756;2022-09-19T17:40:53;21.00;52.10
69054;DHT22;56125;52.242;4.756;2022-09-19T17:45:59;21.00;52.20
69054;DHT22;56125;52.242;4.756;2022-09-19T17:51:14;21.00;52.40
69054;DHT22;56125;52.242;4.756;2022-09-19T17:56:18;21.00;52.40
69054;DHT22;56125;52.242;4.756;2022-09-19T18:01:21;21.00;52.50
69054;DHT22;56125;52.242;4.756;2022-09-19T18:06:41;21.00;52.50
69054;DHT22;56125;52.242;4.756;2022-09-19T18:11:42;21.00;52.60
69054;DHT22;56125;52.242;4.756;2022-09-19T18:16:43;20.90;52.50
69054;DHT22;56125;52.242;4.756;2022-09-19T18:21:44;21.00;52.50
69054;DHT22;56125;52.242;4.756;2022-09-19T18:26:46;21.00;52.70
69054;DHT22;56125;52.242;4.756;2022-09-19T18:31:47;21.00;53.00
69054;DHT22;56125;52.242;4.756;2022-09-19T18:36:48;21.00;53.30
69054;DHT22;56125;52.242;4.756;2022-09-19T18:41:49;21.00;53.60
69054;DHT22;56125;52.242;4.756;2022-09-19T18:46:50;21.00;53.90
69054;DHT22;56125;52.242;4.756;2022-09-19T18:51:52;21.00;53.90
69054;DHT22;56125;52.242;4.756;2022-09-19T18:56:53;21.00;54.00
69054;DHT22;56125;52.242;4.756;2022-09-19T19:01:54;21.00;54.30
69054;DHT22;56125;52.242;4.756;2022-09-19T19:06:56;21.00;54.40
69054;DHT22;56125;52.242;4.756;2022-09-19T19:11:58;21.00;54.60
69054;DHT22;56125;52.242;4.756;2022-09-19T19:17:01;21.00;54.60
69054;DHT22;56125;52.242;4.756;2022-09-19T19:22:03;21.00;54.90
69054;DHT22;56125;52.242;4.756;2022-09-19T19:27:05;21.00;55.00
69054;DHT22;56125;52.242;4.756;2022-09-19T19:32:06;21.00;55.00
69054;DHT22;56125;52.242;4.756;2022-09-19T19:37:07;20.90;55.10
69054;DHT22;56125;52.242;4.756;2022-09-19T19:42:08;20.90;55.20
69054;DHT22;56125;52.242;4.756;2022-09-19T19:47:09;20.90;55.20
69054;DHT22;56125;52.242;4.756;2022-09-19T19:52:11;20.90;55.60
69054;DHT22;56125;52.242;4.756;2022-09-19T19:57:12;20.90;55.60
69054;DHT22;56125;52.242;4.756;2022-09-19T20:02:13;20.90;55.70
69054;DHT22;56125;52.242;4.756;2022-09-19T20:07:14;20.90;56.00
69054;DHT22;56125;52.242;4.756;2022-09-19T20:12:15;20.90;55.90
69054;DHT22;56125;52.242;4.756;2022-09-19T20:17:16;20.90;55.80
69054;DHT22;56125;52.242;4.756;2022-09-19T20:22:17;20.80;55.60
69054;DHT22;56125;52.242;4.756;2022-09-19T20:27:18;20.80;55.40
69054;DHT22;56125;52.242;4.756;2022-09-19T20:32:19;20.80;55.50
69054;DHT22;56125;52.242;4.756;2022-09-19T20:37:21;20.80;55.40
69054;DHT22;56125;52.242;4.756;2022-09-19T20:42:28;20.80;55.40
69054;DHT22;56125;52.242;4.756;2022-09-19T20:47:29;20.80;55.50
69054;DHT22;56125;52.242;4.756;2022-09-19T20:52:30;20.70;55.50
69054;DHT22;56125;52.242;4.756;2022-09-19T20:57:32;20.70;55.50
69054;DHT22;56125;52.242;4.756;2022-09-19T21:02:33;20.70;55.40
69054;DHT22;56125;52.242;4.756;2022-09-19T21:07:34;20.70;55.40
69054;DHT22;56125;52.242;4.756;2022-09-19T21:12:37;20.70;55.40
69054;DHT22;56125;52.242;4.756;2022-09-19T21:17:38;20.70;55.40
69054;DHT22;56125;52.242;4.756;2022-09-19T21:22:39;20.70;55.40
69054;DHT22;56125;52.242;4.756;2022-09-19T21:27:40;20.70;55.50
69054;DHT22;56125;52.242;4.756;2022-09-19T21:32:41;20.70;55.50
69054;DHT22;56125;52.242;4.756;2022-09-19T21:37:42;20.60;55.40
69054;DHT22;56125;52.242;4.756;2022-09-19T21:42:43;20.60;55.50
69054;DHT22;56125;52.242;4.756;2022-09-19T21:47:47;20.60;55.50
69054;DHT22;56125;52.242;4.756;2022-09-19T21:52:48;20.60;55.50
69054;DHT22;56125;52.242;4.756;2022-09-19T21:57:50;20.60;55.50
69054;DHT22;56125;52.242;4.756;2022-09-19T22:02:51;20.60;55.50
69054;DHT22;56125;52.242;4.756;2022-09-19T22:07:52;20.50;55.50
69054;DHT22;56125;52.242;4.756;2022-09-19T22:12:53;20.60;55.60
69054;DHT22;56125;52.242;4.756;2022-09-19T22:17:54;20.50;55.60
69054;DHT22;56125;52.242;4.756;2022-09-19T22:22:57;20.60;55.70
69054;DHT22;56125;52.242;4.756;2022-09-19T22:27:59;20.50;55.60
69054;DHT22;56125;52.242;4.756;2022-09-19T22:33:00;20.50;55.60
69054;DHT22;56125;52.242;4.756;2022-09-19T22:38:01;20.50;55.70
69054;DHT22;56125;52.242;4.756;2022-09-19T22:43:02;20.50;55.70
69054;DHT22;56125;52.242;4.756;2022-09-19T22:48:04;20.50;55.70
69054;DHT22;56125;52.242;4.756;2022-09-19T22:53:05;20.50;55.70
69054;DHT22;56125;52.242;4.756;2022-09-19T22:58:06;20.50;55.70
69054;DHT22;56125;52.242;4.756;2022-09-19T23:03:07;20.40;55.70
69054;DHT22;56125;52.242;4.756;2022-09-19T23:08:09;20.40;55.70
69054;DHT22;56125;52.242;4.756;2022-09-19T23:13:10;20.40;55.70
69054;DHT22;56125;52.242;4.756;2022-09-19T23:18:30;20.50;55.70
69054;DHT22;56125;52.242;4.756;2022-09-19T23:23:31;20.40;55.70
69054;DHT22;56125;52.242;4.756;2022-09-19T23:28:33;20.40;55.70
69054;DHT22;56125;52.242;4.756;2022-09-19T23:33:34;20.40;55.80
69054;DHT22;56125;52.242;4.756;2022-09-19T23:38:36;20.40;55.70
69054;DHT22;56125;52.242;4.756;2022-09-19T23:43:37;20.40;55.60
69054;DHT22;56125;52.242;4.756;2022-09-19T23:48:38;20.40;55.60
69054;DHT22;56125;52.242;4.756;2022-09-19T23:53:40;20.40;55.70
69054;DHT22;56125;52.242;4.756;2022-09-19T23:58:42;20.40;55.60
